Terminal Aerodrome Forecast
Issued by NWS

Home | Current Version | Previous Version | Text Only | Print | Product List | Glossary On
Versions: 1 2 3 4 5 6 7 8 9 10 11 12 13 14 15 16 17 18
000
FTUS45 KABQ 051500 AAA
TAFGUP
TAF AMD
KGUP 051516Z 0515/0612 22006KT P6SM VCSH SCT020 OVC050
      TEMPO 0515/0517 -SHRA BKN015
     FM051800 22015G25KT P6SM VCSH SCT040 BKN090
     FM052100 25017G27KT P6SM -SHRA BKN040
      TEMPO 0521/0524 VRB25G35KT 6SM TSRA OVC035CB
     FM060300 24015G23KT P6SM VCSH BKN040
      TEMPO 0608/0612 5SM BR OVC015=

USA.gov is the U.S. government's official web portal to all federal, state and local government web resources and services.